createdAt,value
2018-05-21T00:00:57.332Z,2.10
2018-05-21T00:03:26.389Z,2.40
2018-05-21T00:05:54.668Z,3.30
2018-05-21T00:08:23.018Z,3.23
2018-05-21T00:10:51.301Z,2.83
2018-05-21T00:13:19.589Z,2.23
2018-05-21T00:15:47.902Z,2.30
2018-05-21T00:18:16.950Z,2.33
2018-05-21T00:20:45.266Z,2.30
2018-05-21T00:23:13.546Z,2.20
2018-05-21T00:25:41.824Z,2.67
2018-05-21T00:28:10.145Z,2.13
2018-05-21T00:30:38.433Z,2.10
2018-05-21T00:33:06.716Z,1.83
2018-05-21T00:35:35.029Z,2.90
2018-05-21T00:38:04.078Z,2.60
2018-05-21T00:40:32.362Z,3.13
2018-05-21T00:43:00.678Z,3.23
2018-05-21T00:45:28.958Z,2.10
2018-05-21T00:47:57.237Z,2.80
2018-05-21T00:50:25.717Z,2.60
2018-05-21T00:52:53.965Z,2.10
2018-05-21T00:55:34.037Z,2.40
2018-05-21T00:58:03.121Z,2.70
2018-05-21T01:00:31.432Z,2.53
2018-05-21T01:03:00.489Z,1.90
2018-05-21T01:05:28.765Z,2.50
2018-05-21T01:07:57.312Z,1.97
2018-05-21T01:10:25.598Z,2.93
2018-05-21T01:12:53.884Z,2.43
2018-05-21T01:15:22.208Z,2.00
2018-05-21T01:17:51.276Z,2.13
2018-05-21T01:20:19.558Z,2.40
2018-05-21T01:22:47.874Z,2.17
2018-05-21T01:25:16.969Z,2.00
2018-05-21T01:27:46.053Z,3.17
2018-05-21T01:30:14.377Z,1.90
2018-05-21T01:32:42.697Z,2.10
2018-05-21T01:35:10.985Z,2.87
2018-05-21T01:37:39.310Z,3.77
2018-05-21T01:40:07.594Z,3.30
2018-05-21T01:42:35.911Z,2.23
2018-05-21T01:45:04.193Z,2.30
2018-05-21T01:47:32.481Z,2.40
2018-05-21T01:50:00.794Z,2.07
2018-05-21T01:52:29.171Z,2.40
2018-05-21T01:54:57.565Z,2.67
2018-05-21T01:57:25.848Z,2.80
2018-05-21T01:59:54.237Z,1.97
2018-05-21T02:02:22.721Z,3.00
2018-05-21T02:04:51.025Z,1.60
2018-05-21T02:07:19.312Z,2.00
2018-05-21T02:09:47.629Z,2.00
2018-05-21T02:12:16.672Z,1.80
2018-05-21T02:14:44.961Z,1.67
2018-05-21T02:17:14.176Z,2.60
2018-05-21T02:19:42.457Z,2.20
2018-05-21T02:22:10.781Z,1.93
2018-05-21T02:24:39.077Z,2.37
2018-05-21T02:27:07.503Z,2.00
2018-05-21T02:29:35.956Z,2.57
2018-05-21T02:32:04.243Z,2.00
2018-05-21T02:34:32.522Z,2.60
2018-05-21T02:37:00.832Z,2.30
2018-05-21T02:39:29.119Z,2.50
2018-05-21T02:41:57.819Z,2.37
2018-05-21T02:44:26.102Z,1.80
2018-05-21T02:46:54.381Z,2.10
2018-05-21T02:49:22.993Z,1.90
2018-05-21T02:51:51.274Z,2.80
2018-05-21T02:54:19.557Z,2.53
2018-05-21T02:56:48.177Z,2.53
2018-05-21T02:59:16.458Z,2.20
2018-05-21T03:01:44.743Z,2.90
2018-05-21T03:04:13.225Z,1.93
2018-05-21T03:06:41.529Z,2.60
2018-05-21T03:09:09.810Z,2.83
2018-05-21T03:11:38.205Z,2.50
2018-05-21T03:14:06.602Z,2.30
2018-05-21T03:16:34.877Z,2.17
2018-05-21T03:19:03.183Z,2.77
2018-05-21T03:21:31.669Z,3.10
2018-05-21T03:23:59.951Z,2.70
2018-05-21T03:26:28.346Z,2.63
2018-05-21T03:28:56.625Z,2.50
2018-05-21T03:31:24.910Z,3.67
2018-05-21T03:33:53.225Z,2.83
2018-05-21T03:36:21.545Z,2.60
2018-05-21T03:38:50.715Z,2.70
2018-05-21T03:41:18.993Z,3.40
2018-05-21T03:43:47.273Z,3.00
2018-05-21T03:46:15.601Z,3.90
2018-05-21T03:48:44.701Z,2.57
2018-05-21T03:51:13.085Z,3.00
2018-05-21T03:53:41.405Z,3.17
2018-05-21T03:56:10.881Z,2.87
2018-05-21T03:58:51.106Z,3.03
2018-05-21T04:01:31.175Z,2.87
2018-05-21T04:03:59.520Z,3.20
2018-05-21T04:06:27.805Z,2.83
2018-05-21T04:08:56.292Z,2.30
2018-05-21T04:11:24.586Z,2.70
2018-05-21T04:13:52.876Z,2.53
2018-05-21T04:16:21.188Z,2.40
2018-05-21T04:18:50.344Z,2.73
2018-05-21T04:21:18.669Z,3.00
2018-05-21T04:23:46.966Z,2.60
2018-05-21T04:26:15.253Z,2.80
2018-05-21T04:28:43.843Z,2.80
2018-05-21T04:31:12.137Z,2.67
2018-05-21T04:33:41.949Z,2.83
2018-05-21T04:36:10.439Z,2.17
2018-05-21T04:38:38.837Z,3.53
2018-05-21T04:41:07.157Z,2.63
2018-05-21T04:43:36.245Z,3.87
2018-05-21T04:46:04.556Z,2.23
2018-05-21T04:48:33.621Z,3.20
2018-05-21T04:51:01.920Z,2.40
2018-05-21T04:53:30.254Z,2.50
2018-05-21T04:55:58.546Z,2.93
2018-05-21T04:58:26.893Z,2.93
2018-05-21T05:00:55.297Z,2.80
2018-05-21T05:03:25.092Z,2.10
2018-05-21T05:05:53.405Z,2.50
2018-05-21T05:08:21.698Z,2.67
2018-05-21T05:10:50.086Z,2.07
2018-05-21T05:13:18.404Z,2.10
2018-05-21T05:15:47.473Z,2.70
2018-05-21T05:18:15.873Z,2.83
2018-05-21T05:20:45.698Z,2.43
2018-05-21T05:23:14.021Z,3.80
2018-05-21T05:25:42.381Z,2.43
2018-05-21T05:28:10.660Z,2.57
2018-05-21T05:30:38.940Z,2.40
2018-05-21T05:33:07.270Z,2.30
2018-05-21T05:35:36.322Z,2.97
2018-05-21T05:38:04.604Z,2.77
2018-05-21T05:40:32.925Z,2.40
2018-05-21T05:43:01.312Z,2.63
2018-05-21T05:45:29.646Z,2.60
2018-05-21T05:47:57.938Z,2.10
2018-05-21T05:50:26.229Z,2.67
2018-05-21T05:52:54.560Z,2.40
2018-05-21T05:55:22.845Z,1.60
2018-05-21T05:57:51.569Z,2.33
2018-05-21T06:00:19.961Z,2.23
2018-05-21T06:02:48.244Z,1.70
2018-05-21T06:05:16.569Z,2.27
2018-05-21T06:07:45.621Z,2.03
2018-05-21T06:10:13.933Z,2.10
2018-05-21T06:12:42.261Z,2.30
2018-05-21T06:15:10.555Z,2.60
2018-05-21T06:17:38.877Z,2.00
2018-05-21T06:20:07.162Z,2.83
2018-05-21T06:22:35.481Z,2.43
2018-05-21T06:25:03.773Z,1.90
2018-05-21T06:27:32.260Z,3.30
2018-05-21T06:30:00.541Z,1.97
2018-05-21T06:32:28.845Z,1.60
2018-05-21T06:34:57.169Z,2.13
2018-05-21T06:37:26.229Z,1.93
2018-05-21T06:39:54.565Z,2.40
2018-05-21T06:42:23.619Z,2.10
2018-05-21T06:44:51.911Z,2.33
2018-05-21T06:47:20.220Z,2.27
2018-05-21T06:49:48.509Z,2.20
2018-05-21T06:52:16.825Z,2.67
2018-05-21T06:54:45.186Z,1.83
2018-05-21T06:57:13.569Z,1.60
2018-05-21T06:59:42.230Z,2.20
2018-05-21T07:02:10.472Z,1.83
2018-05-21T07:04:38.765Z,1.60
2018-05-21T07:07:07.086Z,1.90
2018-05-21T07:09:35.430Z,1.90
2018-05-21T07:12:03.751Z,2.20
2018-05-21T07:14:32.800Z,2.20
2018-05-21T07:17:01.334Z,2.47
2018-05-21T07:19:29.621Z,1.73
2018-05-21T07:21:57.914Z,2.13
2018-05-21T07:24:26.232Z,1.87
2018-05-21T07:26:54.535Z,2.17
2018-05-21T07:29:22.869Z,2.37
2018-05-21T07:31:51.204Z,1.93
2018-05-21T07:34:19.497Z,4.80
2018-05-21T07:36:47.785Z,1.40
2018-05-21T07:39:16.098Z,1.60
2018-05-21T07:41:44.389Z,1.33
2018-05-21T07:44:12.919Z,2.10
2018-05-21T07:46:41.197Z,2.50
2018-05-21T07:49:09.477Z,2.80
2018-05-21T07:51:37.851Z,2.57
2018-05-21T07:54:06.104Z,1.70
2018-05-21T07:56:34.777Z,2.20
2018-05-21T07:59:03.077Z,2.40
2018-05-21T08:01:32.161Z,1.97
2018-05-21T08:04:01.995Z,1.40
2018-05-21T08:06:30.282Z,2.10
2018-05-21T08:08:58.605Z,1.67
2018-05-21T08:11:27.664Z,1.50
2018-05-21T08:13:55.982Z,1.30
2018-05-21T08:16:24.360Z,2.00
2018-05-21T08:18:53.048Z,1.67
2018-05-21T08:21:21.334Z,1.43
2018-05-21T08:23:49.637Z,1.43
2018-05-21T08:26:17.958Z,1.63
2018-05-21T08:28:47.010Z,1.53
2018-05-21T08:31:15.420Z,2.07
2018-05-21T08:33:43.707Z,1.70
2018-05-21T08:36:12.024Z,1.67
2018-05-21T08:38:41.091Z,1.77
2018-05-21T08:41:09.365Z,1.77
2018-05-21T08:43:37.686Z,1.97
2018-05-21T08:46:05.971Z,1.97
2018-05-21T08:48:35.149Z,3.07
2018-05-21T08:51:04.498Z,1.70
2018-05-21T08:53:34.287Z,2.90
2018-05-21T08:56:02.578Z,2.13
2018-05-21T08:58:31.196Z,2.63
2018-05-21T09:00:59.484Z,1.50
2018-05-21T09:03:27.759Z,2.13
2018-05-21T09:06:00.668Z,1.43
2018-05-21T09:08:28.949Z,2.23
2018-05-21T09:10:57.270Z,1.73
2018-05-21T09:13:25.550Z,1.83
2018-05-21T09:15:54.053Z,2.00
2018-05-21T09:18:22.412Z,2.17
2018-05-21T09:20:50.697Z,1.60
2018-05-21T09:23:19.016Z,1.57
2018-05-21T09:25:47.411Z,1.70
2018-05-21T09:28:15.798Z,1.77
2018-05-21T09:30:44.076Z,1.57
2018-05-21T09:33:12.389Z,1.90
2018-05-21T09:35:40.714Z,1.93
2018-05-21T09:38:08.995Z,1.37
2018-05-21T09:40:37.922Z,1.60
2018-05-21T09:43:06.573Z,1.97
2018-05-21T09:45:35.665Z,1.83
2018-05-21T09:48:04.005Z,1.20
2018-05-21T09:50:32.259Z,1.20
2018-05-21T09:53:01.644Z,2.17
2018-05-21T09:55:29.925Z,1.37
2018-05-21T09:57:58.214Z,1.30
2018-05-21T10:00:26.529Z,1.40
2018-05-21T10:02:54.825Z,1.80
2018-05-21T10:07:57.733Z,1.47
2018-05-21T10:10:26.056Z,1.30
2018-05-21T10:12:55.109Z,1.40
2018-05-21T10:15:23.393Z,1.00
2018-05-21T10:17:51.918Z,1.10
2018-05-21T10:20:20.212Z,1.90
2018-05-21T10:22:49.268Z,0.80
2018-05-21T10:25:17.593Z,1.63
2018-05-21T10:27:45.882Z,1.00
2018-05-21T10:30:14.375Z,0.87
2018-05-21T10:32:43.469Z,0.90
2018-05-21T10:35:11.761Z,1.27
2018-05-21T10:37:40.086Z,0.90
2018-05-21T10:40:09.885Z,1.00
2018-05-21T10:42:38.601Z,0.90
2018-05-21T10:45:06.898Z,1.33
2018-05-21T10:47:35.277Z,0.97
2018-05-21T10:50:03.979Z,1.00
2018-05-21T10:52:32.267Z,1.30
2018-05-21T10:55:00.546Z,1.07
2018-05-21T10:57:28.917Z,0.90
2018-05-21T10:59:57.233Z,1.07
2018-05-21T11:02:25.557Z,0.90
2018-05-21T11:04:54.604Z,1.13
2018-05-21T11:07:22.945Z,1.00
2018-05-21T11:09:52.010Z,1.77
2018-05-21T11:12:20.297Z,1.70
2018-05-21T11:14:48.623Z,1.00
2018-05-21T11:17:16.910Z,1.00
2018-05-21T11:19:45.241Z,1.23
2018-05-21T11:22:13.529Z,1.20
2018-05-21T11:24:41.909Z,0.83
2018-05-21T11:27:10.972Z,1.33
2018-05-21T11:29:39.312Z,1.00
2018-05-21T11:32:07.610Z,1.33
2018-05-21T11:34:35.941Z,1.30
2018-05-21T11:37:05.869Z,1.20
2018-05-21T11:39:34.862Z,1.53
2018-05-21T11:42:03.147Z,1.00
2018-05-21T11:44:31.439Z,1.10
2018-05-21T11:46:59.841Z,1.40
2018-05-21T11:49:28.125Z,0.87
2018-05-21T11:51:56.417Z,1.10
2018-05-21T11:54:24.748Z,0.70
2018-05-21T11:56:53.819Z,1.40
2018-05-21T11:59:22.214Z,0.90
2018-05-21T12:01:50.537Z,1.20
2018-05-21T12:04:19.628Z,1.40
2018-05-21T12:06:47.921Z,1.00
2018-05-21T12:09:17.105Z,1.10
2018-05-21T12:11:45.445Z,1.00
2018-05-21T12:14:13.775Z,1.20
2018-05-21T12:16:42.113Z,1.23
2018-05-21T12:19:11.171Z,0.67
2018-05-21T12:21:39.459Z,1.20
2018-05-21T12:24:07.797Z,1.03
2018-05-21T12:26:36.110Z,0.90
2018-05-21T12:29:04.392Z,1.37
2018-05-21T12:31:32.822Z,1.10
2018-05-21T12:34:01.111Z,1.50
2018-05-21T12:36:29.446Z,1.03
2018-05-21T12:38:58.502Z,1.40
2018-05-21T12:41:26.820Z,1.13
2018-05-21T12:43:55.163Z,1.00
2018-05-21T12:46:24.314Z,1.30
2018-05-21T12:48:52.645Z,1.10
2018-05-21T12:51:20.932Z,1.00
2018-05-21T12:53:49.285Z,1.10
2018-05-21T12:56:17.614Z,1.27
2018-05-21T12:58:45.896Z,1.13
2018-05-21T13:01:14.189Z,1.43
2018-05-21T13:03:42.518Z,1.30
2018-05-21T13:06:11.243Z,0.80
2018-05-21T13:08:39.630Z,1.03
2018-05-21T13:11:08.109Z,1.63
2018-05-21T13:13:36.722Z,1.10
2018-05-21T13:16:05.009Z,0.90
2018-05-21T13:18:33.297Z,0.90
2018-05-21T13:21:01.623Z,1.27
2018-05-21T13:23:30.040Z,1.40
2018-05-21T13:25:58.257Z,1.10
2018-05-21T13:28:26.582Z,1.00
2018-05-21T13:30:55.702Z,0.93
2018-05-21T13:33:24.766Z,0.93
2018-05-21T13:35:53.050Z,1.47
2018-05-21T13:38:21.413Z,1.23
2018-05-21T13:40:49.703Z,1.10
2018-05-21T13:43:18.012Z,1.00
2018-05-21T13:45:46.329Z,1.10
2018-05-21T13:48:14.661Z,0.87
2018-05-21T13:50:42.954Z,1.10
2018-05-21T13:53:11.293Z,0.93
2018-05-21T13:55:39.625Z,1.13
2018-05-21T13:58:07.962Z,1.23
2018-05-21T14:00:36.365Z,1.13
2018-05-21T14:03:04.650Z,1.00
2018-05-21T14:05:32.981Z,0.83
2018-05-21T14:08:02.080Z,0.93
2018-05-21T14:10:31.146Z,0.90
2018-05-21T14:12:59.467Z,1.20
2018-05-21T14:15:27.806Z,0.90
2018-05-21T14:17:56.234Z,1.20
2018-05-21T14:20:24.521Z,1.23
2018-05-21T14:22:52.866Z,1.13
2018-05-21T14:25:21.571Z,1.20
2018-05-21T14:27:49.818Z,1.20
2018-05-21T14:30:18.124Z,0.97
2018-05-21T14:32:47.297Z,1.10
2018-05-21T14:35:15.579Z,1.70
2018-05-21T14:37:43.918Z,0.90
2018-05-21T14:40:12.210Z,1.20
2018-05-21T14:42:40.863Z,0.90
2018-05-21T14:45:09.150Z,1.40
2018-05-21T14:47:37.545Z,1.10
2018-05-21T14:50:06.038Z,0.93
2018-05-21T14:52:34.314Z,1.07
2018-05-21T14:55:02.616Z,1.00
2018-05-21T14:57:32.465Z,0.80
2018-05-21T15:00:00.761Z,1.10
2018-05-21T15:02:29.854Z,1.10
2018-05-21T15:04:58.142Z,0.90
2018-05-21T15:07:26.459Z,1.60
2018-05-21T15:09:54.752Z,1.23
2018-05-21T15:12:23.098Z,1.00
2018-05-21T15:14:51.385Z,0.73
2018-05-21T15:17:19.674Z,1.10
2018-05-21T15:19:48.006Z,1.13
2018-05-21T15:22:16.346Z,3.40
2018-05-21T15:24:44.640Z,1.23
2018-05-21T15:27:12.971Z,0.97
2018-05-21T15:29:42.044Z,0.97
2018-05-21T15:32:10.374Z,1.40
2018-05-21T15:34:38.980Z,1.27
2018-05-21T15:37:07.270Z,1.60
2018-05-21T15:39:35.563Z,1.00
2018-05-21T15:42:03.886Z,1.67
2018-05-21T15:44:32.221Z,1.23
2018-05-21T15:47:01.269Z,1.53
2018-05-21T15:49:29.597Z,1.23
2018-05-21T15:51:57.924Z,1.30
2018-05-21T15:54:26.217Z,1.10
2018-05-21T15:56:54.546Z,1.00
2018-05-21T15:59:22.834Z,1.07
2018-05-21T16:01:51.121Z,0.90
2018-05-21T16:04:19.489Z,0.90
2018-05-21T16:06:47.777Z,0.90
2018-05-21T16:09:16.102Z,0.80
2018-05-21T16:11:44.414Z,1.07
2018-05-21T16:14:13.504Z,1.13
2018-05-21T16:16:41.790Z,1.20
2018-05-21T16:19:10.139Z,0.90
2018-05-21T16:21:38.425Z,1.03
2018-05-21T16:24:06.705Z,1.23
2018-05-21T16:26:35.038Z,0.90
2018-05-21T16:29:03.433Z,0.90
2018-05-21T16:31:31.761Z,1.07
2018-05-21T16:34:00.857Z,1.27
2018-05-21T16:36:30.156Z,1.03
2018-05-21T16:38:58.433Z,1.70
2018-05-21T16:41:26.844Z,1.00
2018-05-21T16:43:55.221Z,1.47
2018-05-21T16:46:23.549Z,0.83
2018-05-21T16:48:51.988Z,0.90
2018-05-21T16:51:20.292Z,0.90
2018-05-21T16:53:48.591Z,0.77
2018-05-21T16:56:16.930Z,1.17
2018-05-21T16:58:45.326Z,1.00
2018-05-21T17:01:13.652Z,0.90
2018-05-21T17:03:42.040Z,1.20
2018-05-21T17:06:10.329Z,1.03
2018-05-21T17:08:38.641Z,1.00
2018-05-21T17:11:07.775Z,1.10
2018-05-21T17:13:36.230Z,1.20
2018-05-21T17:16:04.564Z,1.40
2018-05-21T17:18:32.885Z,1.20
2018-05-21T17:21:01.219Z,0.90
2018-05-21T17:23:30.274Z,0.83
2018-05-21T17:25:58.630Z,1.47
2018-05-21T17:28:26.924Z,1.50
2018-05-21T17:30:55.213Z,1.50
2018-05-21T17:33:23.538Z,1.20
2018-05-21T17:35:51.862Z,1.00
2018-05-21T17:38:20.244Z,1.57
2018-05-21T17:40:48.729Z,1.33
2018-05-21T17:43:17.013Z,1.10
2018-05-21T17:45:45.308Z,0.90
2018-05-21T17:48:13.644Z,1.13
2018-05-21T17:50:42.311Z,1.10
2018-05-21T17:53:10.607Z,2.30
2018-05-21T17:55:39.665Z,1.77
2018-05-21T17:58:07.977Z,1.20
2018-05-21T18:00:36.425Z,1.13
2018-05-21T18:03:04.807Z,0.93
2018-05-21T18:05:33.853Z,1.77
2018-05-21T18:08:02.325Z,1.70
2018-05-21T18:10:30.677Z,1.57
2018-05-21T18:12:59.738Z,1.30
2018-05-21T18:15:28.271Z,0.90
2018-05-21T18:17:56.598Z,1.30
2018-05-21T18:20:24.891Z,1.17
2018-05-21T18:22:53.239Z,1.40
2018-05-21T18:25:21.520Z,0.90
2018-05-21T18:27:49.825Z,1.10
2018-05-21T18:30:18.318Z,1.83
2018-05-21T18:32:46.548Z,1.57
2018-05-21T18:35:14.877Z,1.27
2018-05-21T18:37:43.217Z,1.87
2018-05-21T18:40:11.516Z,1.53
2018-05-21T18:42:39.856Z,1.23
2018-05-21T18:45:08.332Z,1.10
2018-05-21T18:47:36.741Z,1.00
2018-05-21T18:50:05.206Z,1.53
2018-05-21T18:52:33.481Z,1.60
2018-05-21T18:55:01.811Z,1.30
2018-05-21T18:57:31.645Z,1.37
2018-05-21T19:00:00.023Z,1.30
2018-05-21T19:02:28.413Z,1.30
2018-05-21T19:04:56.744Z,1.20
2018-05-21T19:07:25.065Z,1.47
2018-05-21T19:09:53.693Z,1.53
2018-05-21T19:12:23.484Z,1.17
2018-05-21T19:14:51.765Z,1.33
2018-05-21T19:17:20.083Z,1.60
2018-05-21T19:19:48.518Z,1.17
2018-05-21T19:22:17.901Z,1.70
2018-05-21T19:24:46.206Z,1.83
2018-05-21T19:27:14.494Z,1.97
2018-05-21T19:29:42.817Z,1.67
2018-05-21T19:32:11.103Z,1.80
2018-05-21T19:34:39.721Z,2.03
2018-05-21T19:37:08.009Z,2.03
2018-05-21T19:39:36.280Z,2.70
2018-05-21T19:42:04.902Z,1.77
2018-05-21T19:44:33.181Z,1.80
2018-05-21T19:47:01.473Z,4.60
2018-05-21T19:49:29.799Z,4.07
2018-05-21T19:51:58.117Z,3.70
2018-05-21T19:54:27.170Z,3.60
2018-05-21T19:56:55.447Z,3.13
2018-05-21T19:59:23.778Z,2.50
2018-05-21T20:01:52.069Z,3.17
2018-05-21T20:04:20.358Z,2.47
2018-05-21T20:06:48.683Z,3.70
2018-05-21T20:09:16.967Z,2.10
2018-05-21T20:11:45.251Z,2.40
2018-05-21T20:14:14.332Z,2.17
2018-05-21T20:16:42.676Z,2.60
2018-05-21T20:19:11.114Z,1.87
2018-05-21T20:21:40.249Z,1.97
2018-05-21T20:24:09.349Z,1.80
2018-05-21T20:26:38.419Z,1.70
2018-05-21T20:29:06.758Z,1.93
2018-05-21T20:31:35.841Z,4.00
2018-05-21T20:34:04.399Z,1.70
2018-05-21T20:36:32.684Z,1.93
2018-05-21T20:39:01.004Z,1.67
2018-05-21T20:41:30.842Z,1.50
2018-05-21T20:43:59.889Z,1.40
2018-05-21T20:46:28.220Z,1.60
2018-05-21T20:48:56.504Z,1.30
2018-05-21T20:51:24.805Z,1.50
2018-05-21T20:53:53.288Z,2.03
2018-05-21T20:56:21.700Z,1.17
2018-05-21T20:58:50.062Z,1.87
2018-05-21T21:01:18.406Z,1.57
2018-05-21T21:03:47.462Z,1.70
2018-05-21T21:06:15.750Z,2.27
2018-05-21T21:08:44.077Z,1.50
2018-05-21T21:11:13.172Z,1.40
2018-05-21T21:13:41.453Z,1.50
2018-05-21T21:16:09.808Z,1.50
2018-05-21T21:18:38.129Z,1.90
2018-05-21T21:21:06.485Z,2.10
2018-05-21T21:23:34.813Z,1.47
2018-05-21T21:26:03.146Z,1.87
2018-05-21T21:28:31.428Z,2.40
2018-05-21T21:31:00.534Z,2.37
2018-05-21T21:33:29.609Z,2.00
2018-05-21T21:35:57.897Z,1.70
2018-05-21T21:38:26.249Z,2.07
2018-05-21T21:40:54.553Z,1.70
2018-05-21T21:43:22.875Z,1.73
2018-05-21T21:45:51.205Z,2.20
2018-05-21T21:48:19.498Z,2.17
2018-05-21T21:50:47.826Z,2.30
2018-05-21T21:53:16.141Z,1.93
2018-05-21T21:55:44.443Z,1.70
2018-05-21T21:58:13.703Z,1.40
2018-05-21T22:00:42.016Z,2.30
2018-05-21T22:03:10.393Z,2.20
2018-05-21T22:05:38.720Z,2.10
2018-05-21T22:08:08.522Z,2.40
2018-05-21T22:10:36.867Z,2.37
2018-05-21T22:13:05.402Z,2.23
2018-05-21T22:15:33.783Z,2.40
2018-05-21T22:18:02.111Z,2.10
2018-05-21T22:20:31.159Z,3.30
2018-05-21T22:22:59.448Z,2.80
2018-05-21T22:25:27.769Z,4.23
2018-05-21T22:27:56.164Z,7.20
2018-05-21T22:30:24.498Z,3.30
2018-05-21T22:32:52.835Z,4.80
2018-05-21T22:35:21.180Z,4.10
2018-05-21T22:37:49.529Z,4.47
2018-05-21T22:40:17.821Z,4.50
2018-05-21T22:42:46.114Z,3.80
2018-05-21T22:45:14.497Z,3.33
2018-05-21T22:47:42.786Z,3.70
2018-05-21T22:50:11.126Z,4.03
2018-05-21T22:52:39.413Z,3.20
2018-05-21T22:55:07.793Z,3.50
2018-05-21T22:57:36.121Z,3.13
2018-05-21T23:00:04.408Z,3.23
2018-05-21T23:02:32.509Z,3.97
2018-05-21T23:05:00.858Z,4.17
2018-05-21T23:07:29.151Z,3.10
2018-05-21T23:09:57.688Z,3.10
2018-05-21T23:12:25.987Z,2.50
2018-05-21T23:14:54.267Z,2.47
2018-05-21T23:17:22.669Z,2.93
2018-05-21T23:19:51.005Z,3.13
2018-05-21T23:22:19.290Z,2.97
2018-05-21T23:24:47.625Z,2.00
2018-05-21T23:27:15.909Z,2.30
2018-05-21T23:29:44.212Z,2.30
2018-05-21T23:32:12.541Z,3.30
2018-05-21T23:34:40.835Z,2.57
2018-05-21T23:37:09.179Z,3.00
2018-05-21T23:39:37.478Z,2.30
2018-05-21T23:42:05.811Z,2.50
2018-05-21T23:44:34.353Z,2.57
2018-05-21T23:47:02.646Z,2.23
2018-05-21T23:49:31.872Z,3.00
2018-05-21T23:52:00.989Z,2.80
2018-05-21T23:54:30.045Z,2.53
2018-05-21T23:56:58.334Z,2.33
2018-05-21T23:59:26.670Z,2.37
